Time;durP1;ratioP1;P1;durP2;ratioP2;P2;SDS_P1;SDS_P2;PMS_P1;PMS_P2;Temp;Humidity;BMP_temperature;BMP_pressure;BME280_temperature;BME280_humidity;BME280_pressure;Samples;Min_cycle;Max_cycle;Signal;HPM_P1;HPM_P2
2023/09/09 00:02:23;;;;;;;7.00;5.80;;;;;;;13.66;100.00;99559.00;109652;1250;59907;-72
2023/09/09 00:04:52;;;;;;;7.20;5.90;;;;;;;13.61;100.00;99557.91;109637;1250;59869;-72
2023/09/09 00:07:19;;;;;;;8.20;6.90;;;;;;;13.58;100.00;99558.35;109623;1250;75347;-73
2023/09/09 00:09:45;;;;;;;8.30;7.10;;;;;;;13.55;100.00;99558.44;109623;1250;67613;-73
2023/09/09 00:12:12;;;;;;;7.90;6.80;;;;;;;13.55;100.00;99556.29;109600;1250;72482;-73
2023/09/09 00:14:38;;;;;;;10.10;6.80;;;;;;;13.57;100.00;99554.43;109677;1250;59792;-73
2023/09/09 00:17:06;;;;;;;8.30;6.70;;;;;;;13.59;100.00;99554.08;109609;1250;59618;-72
2023/09/09 00:19:34;;;;;;;7.90;6.80;;;;;;;13.62;100.00;99556.21;109685;1250;75258;-73
2023/09/09 00:22:00;;;;;;;8.60;6.70;;;;;;;13.67;100.00;99557.13;109655;1250;67757;-72
2023/09/09 00:24:27;;;;;;;8.80;6.60;;;;;;;13.69;100.00;99557.36;109600;1250;72390;-73
2023/09/09 00:26:55;;;;;;;8.80;7.50;;;;;;;13.71;100.00;99553.92;109600;1250;59933;-72
2023/09/09 00:29:22;;;;;;;9.40;7.10;;;;;;;13.72;100.00;99554.06;109580;1250;59868;-73
2023/09/09 00:31:49;;;;;;;9.00;7.40;;;;;;;13.73;100.00;99554.36;109648;1250;75910;-74
2023/09/09 00:34:16;;;;;;;10.60;8.10;;;;;;;13.74;100.00;99557.09;109660;1251;66409;-73
2023/09/09 00:36:43;;;;;;;11.30;7.80;;;;;;;13.75;100.00;99557.60;109639;1250;71611;-72
2023/09/09 00:39:09;;;;;;;9.30;7.50;;;;;;;13.79;100.00;99555.88;109558;1250;59797;-73
2023/09/09 00:41:36;;;;;;;9.70;7.10;;;;;;;13.84;100.00;99553.00;109559;1251;59899;-73
2023/09/09 00:44:02;;;;;;;8.70;7.40;;;;;;;13.87;100.00;99555.05;109631;1250;75309;-73
2023/09/09 00:46:29;;;;;;;7.70;6.90;;;;;;;13.90;100.00;99550.27;109670;1250;66383;-73
2023/09/09 00:48:56;;;;;;;9.90;7.60;;;;;;;13.93;100.00;99553.77;109570;1250;72591;-73
2023/09/09 00:51:22;;;;;;;11.50;7.20;;;;;;;13.96;100.00;99554.61;109612;1250;60480;-73
2023/09/09 00:53:50;;;;;;;14.50;7.30;;;;;;;13.97;100.00;99555.37;109605;1250;60014;-73
2023/09/09 00:56:17;;;;;;;9.70;6.90;;;;;;;13.95;100.00;99554.84;109549;1250;75238;-73
2023/09/09 00:58:44;;;;;;;8.00;7.20;;;;;;;13.91;100.00;99551.36;109648;1250;67760;-73
2023/09/09 01:01:10;;;;;;;12.20;7.70;;;;;;;13.87;100.00;99550.73;109617;1250;71146;-73
2023/09/09 01:03:37;;;;;;;6.70;6.10;;;;;;;13.81;100.00;99549.27;109634;1250;61925;-72
2023/09/09 01:06:04;;;;;;;7.40;6.40;;;;;;;13.75;100.00;99546.98;109549;1250;59674;-73
2023/09/09 01:08:31;;;;;;;12.60;6.60;;;;;;;13.71;100.00;99550.92;109509;1251;74937;-73
2023/09/09 01:10:58;;;;;;;10.90;7.00;;;;;;;13.68;100.00;99547.27;109660;1250;67892;-72
2023/09/09 01:13:24;;;;;;;9.80;7.50;;;;;;;13.65;100.00;99549.86;109675;1250;72682;-73
2023/09/09 01:15:52;;;;;;;6.90;6.20;;;;;;;13.63;100.00;99551.65;109647;1250;59721;-73
2023/09/09 01:18:18;;;;;;;8.80;6.60;;;;;;;13.61;100.00;99548.14;109633;1250;60126;-73
2023/09/09 01:20:50;;;;;;;8.10;6.70;;;;;;;13.59;100.00;99547.48;109648;1251;75318;-73
2023/09/09 01:23:17;;;;;;;7.70;6.50;;;;;;;13.59;100.00;99547.33;109686;1250;66515;-73
2023/09/09 01:25:43;;;;;;;8.00;6.60;;;;;;;13.60;100.00;99547.13;109504;1250;72805;-73
2023/09/09 01:28:10;;;;;;;9.10;7.30;;;;;;;13.58;100.00;99545.23;109610;1250;59747;-73
2023/09/09 01:30:36;;;;;;;8.00;6.30;;;;;;;13.57;100.00;99543.95;109674;1250;59679;-73
2023/09/09 01:33:03;;;;;;;8.50;7.10;;;;;;;13.55;100.00;99541.73;109669;1249;75278;-73
2023/09/09 01:35:30;;;;;;;9.40;7.20;;;;;;;13.52;100.00;99541.66;109576;1250;66568;-74
2023/09/09 01:37:58;;;;;;;8.00;6.30;;;;;;;13.48;100.00;99537.05;109637;1250;71871;-73
2023/09/09 01:40:25;;;;;;;8.20;6.50;;;;;;;13.48;100.00;99537.78;109625;1250;59836;-74
2023/09/09 01:42:51;;;;;;;7.70;7.00;;;;;;;13.49;100.00;99540.68;109676;1250;60110;-73
2023/09/09 01:45:18;;;;;;;7.00;6.40;;;;;;;13.49;100.00;99541.17;109617;1251;75348;-74
2023/09/09 01:47:45;;;;;;;15.50;7.60;;;;;;;13.47;100.00;99541.27;109534;1253;66223;-74
2023/09/09 01:50:12;;;;;;;9.00;7.10;;;;;;;13.44;100.00;99541.31;109567;1250;71042;-74
2023/09/09 01:52:39;;;;;;;10.10;7.20;;;;;;;13.43;100.00;99538.58;109534;1250;61213;-74
2023/09/09 01:55:06;;;;;;;7.70;7.00;;;;;;;13.44;100.00;99541.89;109637;1250;59627;-72
2023/09/09 01:57:33;;;;;;;7.80;6.50;;;;;;;13.45;100.00;99540.49;109602;1249;75441;-72
2023/09/09 01:59:59;;;;;;;7.10;6.20;;;;;;;13.46;100.00;99541.75;109580;1250;66390;-72
2023/09/09 02:02:26;;;;;;;8.70;7.00;;;;;;;13.47;100.00;99537.81;109547;1252;59776;-72
2023/09/09 02:04:53;;;;;;;7.50;6.40;;;;;;;13.43;100.00;99539.29;109613;1250;60354;-72
2023/09/09 02:07:19;;;;;;;7.30;6.60;;;;;;;13.39;100.00;99538.38;109617;1250;59681;-72
2023/09/09 02:09:47;;;;;;;9.40;7.00;;;;;;;13.33;100.00;99536.23;109689;1249;75522;-72
2023/09/09 02:12:13;;;;;;;7.50;6.10;;;;;;;13.30;100.00;99539.86;109673;1250;67784;-72
2023/09/09 02:14:40;;;;;;;8.60;6.00;;;;;;;13.27;100.00;99537.73;109687;1250;72642;-72
2023/09/09 02:17:07;;;;;;;7.80;7.10;;;;;;;13.25;100.00;99538.48;109552;1250;62160;-72
2023/09/09 02:19:34;;;;;;;8.40;7.30;;;;;;;13.21;100.00;99536.16;109668;1250;60348;-72
2023/09/09 02:22:00;;;;;;;9.60;7.10;;;;;;;13.16;100.00;99536.42;109623;1250;75140;-72
2023/09/09 02:24:27;;;;;;;7.10;6.30;;;;;;;13.15;100.00;99534.96;109703;1250;67722;-72
2023/09/09 02:26:54;;;;;;;8.00;6.40;;;;;;;13.16;100.00;99530.42;109655;1250;59936;-72
2023/09/09 02:29:21;;;;;;;8.30;6.80;;;;;;;13.17;100.00;99532.41;109570;1250;61735;-72
2023/09/09 02:31:47;;;;;;;7.40;6.60;;;;;;;13.16;100.00;99534.50;109534;1252;60014;-72
2023/09/09 02:34:14;;;;;;;11.40;6.50;;;;;;;13.17;100.00;99540.05;109707;1250;75739;-72
2023/09/09 02:36:44;;;;;;;8.10;6.80;;;;;;;13.16;100.00;99539.67;109621;1250;67671;-72
2023/09/09 02:39:11;;;;;;;8.60;6.50;;;;;;;13.11;100.00;99535.83;109578;1250;70350;-72
2023/09/09 02:41:37;;;;;;;7.80;7.00;;;;;;;13.02;100.00;99541.59;109516;1251;60604;-72
2023/09/09 02:44:04;;;;;;;9.80;7.00;;;;;;;12.95;100.00;99541.45;109644;1250;59717;-72
2023/09/09 02:46:31;;;;;;;8.40;6.30;;;;;;;12.91;100.00;99541.93;109577;1250;75508;-72
2023/09/09 02:48:58;;;;;;;10.50;6.10;;;;;;;12.90;100.00;99541.80;109571;1250;66625;-72
2023/09/09 02:51:24;;;;;;;7.60;5.80;;;;;;;12.94;100.00;99543.73;109573;1250;71625;-72
2023/09/09 02:53:51;;;;;;;8.00;5.80;;;;;;;12.97;100.00;99545.95;109585;1250;61649;-73
2023/09/09 02:56:17;;;;;;;8.30;6.00;;;;;;;13.01;100.00;99549.79;109621;1250;60208;-73
2023/09/09 02:58:44;;;;;;;8.40;6.10;;;;;;;13.04;100.00;99549.30;109442;1250;75288;-73
2023/09/09 03:01:11;;;;;;;7.80;5.80;;;;;;;13.04;100.00;99547.49;109669;1250;66650;-72
2023/09/09 03:03:38;;;;;;;7.60;5.80;;;;;;;13.02;100.00;99547.88;109625;1250;73249;-72
2023/09/09 03:06:05;;;;;;;7.50;6.80;;;;;;;12.99;100.00;99547.55;109425;1250;60201;-72
2023/09/09 03:08:32;;;;;;;7.70;6.20;;;;;;;12.95;100.00;99548.06;109541;1250;59782;-73
2023/09/09 03:10:59;;;;;;;6.50;5.80;;;;;;;12.92;100.00;99545.39;109673;1250;74716;-72
2023/09/09 03:13:27;;;;;;;8.70;6.40;;;;;;;12.91;100.00;99545.98;109531;1250;66455;-73
2023/09/09 03:15:53;;;;;;;6.10;5.50;;;;;;;12.90;100.00;99542.70;109556;1250;71298;-73
2023/09/09 03:18:20;;;;;;;6.40;5.50;;;;;;;12.90;100.00;99546.89;109635;1250;60437;-73
2023/09/09 03:20:47;;;;;;;7.70;6.30;;;;;;;12.93;100.00;99545.17;109661;1250;59978;-73
2023/09/09 03:23:13;;;;;;;9.00;5.40;;;;;;;12.98;100.00;99543.42;109636;1250;73973;-73
2023/09/09 03:25:40;;;;;;;7.40;5.70;;;;;;;13.01;100.00;99538.23;109577;1250;59809;-73
2023/09/09 03:28:06;;;;;;;6.20;5.60;;;;;;;13.03;100.00;99537.04;109500;1250;72441;-72
2023/09/09 03:30:54;;;;;;;7.30;5.70;;;;;;;13.05;100.00;99531.82;109585;1250;61835;-73
2023/09/09 03:33:23;;;;;;;11.50;5.60;;;;;;;13.07;100.00;99533.23;109615;1250;60246;-73
2023/09/09 03:35:50;;;;;;;7.30;5.30;;;;;;;13.09;100.00;99539.23;109639;1251;75238;-72
2023/09/09 03:38:16;;;;;;;7.20;5.50;;;;;;;13.11;100.00;99542.61;109539;1250;67679;-73
2023/09/09 03:40:43;;;;;;;6.00;4.90;;;;;;;13.13;100.00;99544.77;109554;1250;70654;-73
2023/09/09 03:43:13;;;;;;;6.10;5.20;;;;;;;13.16;100.00;99544.33;109627;1250;61669;-73
2023/09/09 03:45:40;;;;;;;7.20;5.40;;;;;;;13.18;100.00;99544.70;109573;1250;60138;-73
2023/09/09 03:48:08;;;;;;;7.90;5.70;;;;;;;13.21;100.00;99545.42;109475;1251;75430;-73
2023/09/09 03:50:35;;;;;;;6.80;5.30;;;;;;;13.23;100.00;99541.74;109616;1250;67652;-72
2023/09/09 03:53:02;;;;;;;8.20;5.50;;;;;;;13.29;100.00;99543.25;109575;1250;71194;-73
2023/09/09 03:55:29;;;;;;;6.80;5.60;;;;;;;13.31;100.00;99542.22;109551;1250;60191;-73
2023/09/09 03:57:56;;;;;;;6.30;5.70;;;;;;;13.33;100.00;99540.92;109533;1250;60099;-73
2023/09/09 04:00:22;;;;;;;8.60;6.00;;;;;;;13.35;100.00;99538.19;109607;1250;59837;-73
2023/09/09 04:02:50;;;;;;;10.80;6.20;;;;;;;13.37;100.00;99539.05;109622;1250;65638;-73
2023/09/09 04:05:16;;;;;;;7.20;5.90;;;;;;;13.38;100.00;99539.55;109649;1250;72756;-73
2023/09/09 04:07:44;;;;;;;9.40;6.20;;;;;;;13.41;100.00;99539.76;109597;1250;60213;-73
2023/09/09 04:10:12;;;;;;;11.30;6.20;;;;;;;13.46;100.00;99537.85;109457;1250;59683;-73
2023/09/09 04:12:39;;;;;;;8.20;6.40;;;;;;;13.56;100.00;99538.21;109491;1251;74185;-73
2023/09/09 04:15:06;;;;;;;7.20;6.20;;;;;;;13.70;100.00;99532.41;109676;1250;67690;-73
2023/09/09 04:17:33;;;;;;;7.60;6.80;;;;;;;13.87;100.00;99532.26;109554;1250;73907;-73
2023/09/09 04:20:00;;;;;;;7.80;5.90;;;;;;;14.05;100.00;99531.29;109537;1250;61711;-73
2023/09/09 04:22:27;;;;;;;10.10;6.30;;;;;;;14.25;100.00;99536.80;109631;1251;59731;-72
2023/09/09 04:24:53;;;;;;;7.30;6.50;;;;;;;14.44;100.00;99533.95;109577;1250;75414;-73
2023/09/09 04:27:21;;;;;;;9.50;6.60;;;;;;;14.65;100.00;99533.04;109598;1250;67798;-73
2023/09/09 04:29:48;;;;;;;7.70;6.90;;;;;;;14.87;100.00;99537.38;109601;1250;72612;-74
2023/09/09 04:32:14;;;;;;;9.60;6.40;;;;;;;15.08;100.00;99535.55;109590;1250;61778;-73
2023/09/09 04:34:41;;;;;;;13.10;6.90;;;;;;;15.32;100.00;99532.91;109541;1251;59789;-72
2023/09/09 04:37:08;;;;;;;9.30;6.50;;;;;;;15.59;100.00;99531.55;109500;1250;75572;-72
2023/09/09 04:39:34;;;;;;;8.90;5.90;;;;;;;15.85;100.00;99522.19;109516;1255;67872;-72
2023/09/09 04:42:01;;;;;;;7.70;6.40;;;;;;;16.13;100.00;99521.19;109615;1250;72219;-72
2023/09/09 04:44:28;;;;;;;9.60;6.80;;;;;;;16.41;100.00;99522.13;109501;1251;60062;-72
2023/09/09 04:46:54;;;;;;;12.00;7.10;;;;;;;16.68;100.00;99516.86;109595;1250;59760;-72
2023/09/09 04:49:22;;;;;;;8.30;7.20;;;;;;;16.95;100.00;99515.14;109652;1250;75627;-72
2023/09/09 04:51:49;;;;;;;9.30;7.40;;;;;;;17.26;100.00;99510.64;109687;1250;66501;-72
2023/09/09 04:54:18;;;;;;;9.90;7.40;;;;;;;17.54;100.00;99516.95;109615;1250;71943;-72
2023/09/09 04:56:46;;;;;;;8.00;7.10;;;;;;;17.80;100.00;99517.58;109543;1250;60513;-73
2023/09/09 04:59:13;;;;;;;8.40;6.80;;;;;;;18.05;100.00;99516.77;109646;1250;60090;-73
2023/09/09 05:01:40;;;;;;;9.00;7.60;;;;;;;18.32;100.00;99516.95;109628;1250;73948;-73
2023/09/09 05:04:07;;;;;;;8.50;7.20;;;;;;;18.64;100.00;99514.39;109567;1255;65577;-72
2023/09/09 05:06:34;;;;;;;10.50;6.80;;;;;;;19.00;100.00;99516.10;109664;1250;71367;-74
2023/09/09 05:09:01;;;;;;;7.70;6.90;;;;;;;19.36;100.00;99513.88;109551;1253;60610;-73
2023/09/09 05:11:27;;;;;;;7.00;6.30;;;;;;;19.70;100.00;99509.98;109539;1250;59800;-74
2023/09/09 05:13:54;;;;;;;8.10;6.90;;;;;;;20.01;100.00;99509.04;109630;1250;75357;-74
2023/09/09 05:16:21;;;;;;;13.30;7.70;;;;;;;20.29;100.00;99504.05;109582;1250;163521;-74
2023/09/09 05:18:48;;;;;;;11.10;8.00;;;;;;;20.56;100.00;99503.82;109556;1250;71047;-73
2023/09/09 05:21:14;;;;;;;10.10;8.30;;;;;;;20.81;100.00;99499.88;109511;1250;59818;-74
2023/09/09 05:23:41;;;;;;;11.60;9.40;;;;;;;21.09;100.00;99498.44;109590;1250;60096;-72
2023/09/09 05:26:07;;;;;;;12.80;9.70;;;;;;;21.35;100.00;99493.70;109646;1250;75407;-74
2023/09/09 05:28:34;;;;;;;15.80;12.00;;;;;;;21.59;100.00;99491.00;109700;1250;66541;-73
2023/09/09 05:31:05;;;;;;;12.90;11.20;;;;;;;21.80;100.00;99489.20;109560;1250;71552;-70
2023/09/09 05:33:32;;;;;;;10.90;9.70;;;;;;;22.04;100.00;99492.92;109551;1251;60723;-76
2023/09/09 05:35:59;;;;;;;12.40;11.10;;;;;;;22.28;100.00;99494.52;109622;1250;60259;-70
2023/09/09 05:38:26;;;;;;;13.20;11.40;;;;;;;22.50;100.00;99497.80;109622;1250;75445;-74
2023/09/09 05:40:53;;;;;;;12.60;11.00;;;;;;;22.70;100.00;99494.89;109571;1250;66655;-72
2023/09/09 05:43:20;;;;;;;13.90;12.10;;;;;;;22.88;100.00;99498.81;109536;1250;72804;-70
2023/09/09 05:45:47;;;;;;;16.50;10.70;;;;;;;23.04;100.00;99505.77;109547;1250;61290;-73
2023/09/09 05:48:14;;;;;;;14.40;10.80;;;;;;;23.20;100.00;99512.45;109647;1254;60373;-77
2023/09/09 05:50:40;;;;;;;14.70;10.90;;;;;;;23.32;100.00;99504.13;109578;1250;75562;-70
2023/09/09 05:53:07;;;;;;;10.40;9.30;;;;;;;23.42;100.00;99502.16;109592;1250;67883;-72
2023/09/09 05:55:33;;;;;;;11.20;9.50;;;;;;;23.53;100.00;99510.43;109636;1250;70990;-70
2023/09/09 05:58:00;;;;;;;8.70;7.50;;;;;;;23.61;100.00;99502.39;109577;1250;59822;-70
2023/09/09 06:00:27;;;;;;;15.20;9.60;;;;;;;23.65;100.00;99515.58;109592;1250;59721;-72
2023/09/09 06:02:54;;;;;;;11.40;8.90;;;;;;;23.77;100.00;99513.02;109394;1250;75426;-70
2023/09/09 06:05:21;;;;;;;11.60;9.70;;;;;;;23.90;100.00;99518.69;109612;1250;68088;-72
2023/09/09 06:07:48;;;;;;;14.10;8.70;;;;;;;24.03;100.00;99513.92;109400;1250;71395;-71
2023/09/09 06:10:14;;;;;;;12.60;8.50;;;;;;;24.16;100.00;99515.21;109518;1250;59804;-70
2023/09/09 06:12:42;;;;;;;10.60;8.20;;;;;;;24.40;99.77;99513.59;109683;1250;60378;-69
2023/09/09 06:15:09;;;;;;;9.10;8.20;;;;;;;24.64;98.21;99507.70;109630;1250;75498;-67
2023/09/09 06:17:39;;;;;;;14.40;8.30;;;;;;;24.84;96.59;99507.59;109715;1250;66650;-71
2023/09/09 06:20:07;;;;;;;8.90;7.00;;;;;;;25.03;95.25;99505.11;109526;1250;72480;-71
2023/09/09 06:22:34;;;;;;;9.70;7.10;;;;;;;25.14;93.37;99507.56;109558;1250;60551;-70
2023/09/09 06:25:02;;;;;;;9.10;7.00;;;;;;;25.17;92.03;99513.19;109513;1250;59828;-71
2023/09/09 06:27:29;;;;;;;8.10;7.30;;;;;;;25.27;91.26;99515.09;109640;1250;74244;-72
2023/09/09 06:29:56;;;;;;;9.90;7.30;;;;;;;25.41;89.84;99519.68;109584;1250;67995;-71
2023/09/09 06:32:24;;;;;;;12.90;8.10;;;;;;;25.54;88.64;99523.52;109687;1250;71735;-74
2023/09/09 06:34:51;;;;;;;7.50;6.70;;;;;;;25.64;87.92;99519.38;109546;1250;60023;-72
2023/09/09 06:37:18;;;;;;;11.40;7.10;;;;;;;25.77;87.19;99524.91;109421;1250;59792;-74
2023/09/09 06:39:44;;;;;;;7.80;5.90;;;;;;;25.90;86.34;99522.01;109671;1250;60108;-76
2023/09/09 06:42:13;;;;;;;7.00;6.40;;;;;;;26.01;85.58;99530.21;109591;1250;59825;-72
2023/09/09 06:44:45;;;;;;;8.30;6.30;;;;;;;26.16;84.18;99530.33;109558;1250;72515;-76
2023/09/09 06:47:11;;;;;;;6.20;5.50;;;;;;;26.29;82.51;99530.83;109686;1250;59761;-75
2023/09/09 06:49:38;;;;;;;6.60;5.90;;;;;;;26.36;81.49;99530.73;109666;1250;60260;-76
2023/09/09 06:52:05;;;;;;;7.70;5.70;;;;;;;26.43;80.98;99530.45;109663;1250;74121;-74
2023/09/09 06:54:32;;;;;;;8.40;5.40;;;;;;;26.57;80.32;99536.36;109612;1250;68090;-75
2023/09/09 06:56:58;;;;;;;5.40;4.90;;;;;;;26.68;80.29;99534.23;109616;1250;59803;-75
2023/09/09 06:59:25;;;;;;;6.20;5.20;;;;;;;26.87;78.84;99530.03;109599;1250;59750;-71
2023/09/09 07:01:52;;;;;;;6.50;5.70;;;;;;;27.03;78.19;99534.16;109550;1250;59800;-72
2023/09/09 07:04:19;;;;;;;7.10;5.10;;;;;;;27.18;76.56;99536.70;109677;1250;74198;-72
2023/09/09 07:06:45;;;;;;;6.10;5.50;;;;;;;27.27;76.15;99535.09;109696;1250;67645;-76
2023/09/09 07:09:32;;;;;;;5.80;5.30;;;;;;;27.52;74.88;99535.74;109570;1251;73169;-71
2023/09/09 07:11:59;;;;;;;5.70;5.20;;;;;;;27.71;74.02;99537.25;109657;1250;59794;-73
2023/09/09 07:14:25;;;;;;;5.40;4.90;;;;;;;27.93;72.60;99538.23;109668;1250;60131;-73
2023/09/09 07:16:52;;;;;;;7.50;6.00;;;;;;;28.17;71.80;99540.57;109627;1251;75222;-71
2023/09/09 07:19:18;;;;;;;5.70;5.00;;;;;;;28.45;69.99;99540.65;109634;1250;66293;-70
2023/09/09 07:21:45;;;;;;;6.20;4.70;;;;;;;28.69;68.27;99540.41;109591;1250;72625;-71
2023/09/09 07:24:12;;;;;;;8.20;5.00;;;;;;;28.83;66.77;99541.61;109546;1251;60013;-68
2023/09/09 07:26:39;;;;;;;8.30;4.40;;;;;;;28.96;66.26;99539.36;109674;1250;60416;-61
2023/09/09 07:29:06;;;;;;;5.20;4.60;;;;;;;29.14;65.19;99538.30;109695;1250;75262;-63
2023/09/09 07:31:32;;;;;;;7.30;4.90;;;;;;;29.24;64.82;99537.67;109648;1250;67599;-61
2023/09/09 07:33:59;;;;;;;35.10;8.20;;;;;;;29.27;63.59;99538.23;109683;1250;71643;-60
2023/09/09 07:36:26;;;;;;;5.50;4.30;;;;;;;29.32;63.34;99536.26;109646;1250;59774;-65
2023/09/09 07:38:52;;;;;;;4.30;3.90;;;;;;;29.40;62.99;99541.44;109637;1250;60303;-72
2023/09/09 07:41:19;;;;;;;5.30;4.80;;;;;;;29.52;62.05;99543.10;109645;1250;75144;-75
2023/09/09 07:43:47;;;;;;;5.70;4.60;;;;;;;29.67;61.98;99541.86;109695;1250;67859;-70
2023/09/09 07:46:14;;;;;;;6.90;4.20;;;;;;;29.89;62.14;99543.74;109666;1250;72747;-71
2023/09/09 07:48:41;;;;;;;5.50;4.30;;;;;;;30.19;61.32;99538.55;109680;1250;59716;-73
2023/09/09 07:51:08;;;;;;;5.80;4.00;;;;;;;30.43;59.43;99535.02;109436;1250;62355;-68
2023/09/09 07:53:34;;;;;;;5.80;4.50;;;;;;;30.62;58.62;99536.23;109577;1250;59764;-69
2023/09/09 07:56:01;;;;;;;4.60;4.20;;;;;;;30.80;56.50;99535.16;109553;1250;66715;-72
2023/09/09 07:58:28;;;;;;;4.80;4.00;;;;;;;30.83;54.82;99535.66;109611;1250;72733;-74
2023/09/09 08:01:03;;;;;;;7.00;4.10;;;;;;;30.78;54.11;99539.11;109535;1250;60501;-73
2023/09/09 08:03:30;;;;;;;6.40;4.20;;;;;;;30.74;54.60;99540.21;109720;1250;60787;-77
2023/09/09 08:06:02;;;;;;;4.10;3.80;;;;;;;30.88;54.14;99542.35;109699;1250;75746;-74
2023/09/09 08:08:29;;;;;;;5.10;3.90;;;;;;;31.15;54.18;99545.70;109691;1250;66292;-74
2023/09/09 08:10:55;;;;;;;6.10;4.10;;;;;;;31.46;53.15;99544.08;109719;1250;72672;-69
2023/09/09 08:13:23;;;;;;;6.20;3.70;;;;;;;31.69;51.23;99549.11;109609;1251;59757;-70
2023/09/09 08:15:49;;;;;;;4.40;4.00;;;;;;;31.71;50.14;99547.80;109548;1250;60084;-72
2023/09/09 08:18:16;;;;;;;8.60;4.60;;;;;;;31.75;49.00;99547.16;109671;1250;74373;-73
2023/09/09 08:20:43;;;;;;;4.40;3.80;;;;;;;31.78;48.69;99544.80;109612;1250;66728;-70
2023/09/09 08:23:09;;;;;;;7.00;4.30;;;;;;;31.68;48.51;99543.24;109646;1250;71476;-73
2023/09/09 08:25:36;;;;;;;8.00;4.90;;;;;;;31.53;48.55;99551.09;109655;1250;60127;-78
2023/09/09 08:28:03;;;;;;;7.40;4.50;;;;;;;31.22;48.26;99552.61;109674;1250;59663;-74
2023/09/09 08:30:30;;;;;;;8.70;4.50;;;;;;;30.90;49.54;99550.94;109651;1253;75217;-73
2023/09/09 08:32:56;;;;;;;7.20;4.70;;;;;;;30.94;50.20;99555.33;109688;1250;66774;-68
2023/09/09 08:35:23;;;;;;;6.60;4.80;;;;;;;31.09;50.12;99557.59;109638;1250;71227;-77
2023/09/09 08:37:50;;;;;;;12.80;5.30;;;;;;;31.29;48.81;99556.61;109408;1252;60150;-77
2023/09/09 08:40:17;;;;;;;10.90;5.70;;;;;;;31.42;49.47;99557.40;109521;1250;60402;-77
2023/09/09 08:43:04;;;;;;;11.90;6.30;;;;;;;31.53;48.65;99557.74;109415;1250;75250;-76
2023/09/09 08:45:43;;;;;;;11.50;5.10;;;;;;;31.69;48.53;99560.11;109578;1251;68618;-71
2023/09/09 08:48:10;;;;;;;11.00;4.50;;;;;;;31.74;47.62;99561.94;109544;1250;72517;-69
2023/09/09 08:50:38;;;;;;;8.10;3.80;;;;;;;31.78;47.42;99567.90;109360;1250;60278;-69
2023/09/09 08:53:05;;;;;;;7.70;4.90;;;;;;;32.27;46.92;99567.34;109499;1250;59684;-69
2023/09/09 08:55:32;;;;;;;4.40;3.70;;;;;;;32.94;44.71;99560.44;109513;1250;75245;-73
2023/09/09 08:57:59;;;;;;;4.60;3.60;;;;;;;33.40;42.82;99560.98;109538;1250;68338;-78
2023/09/09 09:00:29;;;;;;;7.40;3.90;;;;;;;33.45;41.15;99565.09;109497;1250;71799;-66
2023/09/09 09:02:55;;;;;;;5.20;3.60;;;;;;;33.16;41.11;99567.36;109413;1251;61566;-69
2023/09/09 09:05:22;;;;;;;5.20;3.70;;;;;;;33.14;41.35;99570.30;109462;1250;60117;-71
2023/09/09 09:07:49;;;;;;;4.60;3.70;;;;;;;33.28;40.66;99570.13;109436;1250;75349;-70
2023/09/09 09:10:15;;;;;;;4.60;2.90;;;;;;;33.39;40.33;99567.71;109444;1250;68096;-71
2023/09/09 09:12:42;;;;;;;4.20;3.20;;;;;;;33.42;39.62;99567.96;109472;1250;70736;-73
2023/09/09 09:15:11;;;;;;;4.50;3.30;;;;;;;33.42;39.16;99565.77;109598;1251;60051;-70
2023/09/09 09:17:40;;;;;;;4.50;3.00;;;;;;;33.42;38.86;99570.30;109498;1255;60348;-68
2023/09/09 09:20:28;;;;;;;5.90;3.40;;;;;;;33.29;39.32;99564.27;109696;1250;74548;-68
2023/09/09 09:22:59;;;;;;;6.10;3.10;;;;;;;33.35;39.74;99564.20;109578;1250;66547;-68
2023/09/09 09:25:27;;;;;;;5.10;3.10;;;;;;;33.38;38.86;99569.02;109504;1250;71202;-64
2023/09/09 09:27:57;;;;;;;5.60;2.90;;;;;;;33.34;39.14;99568.58;109525;1250;60052;-72
2023/09/09 09:30:24;;;;;;;4.30;3.40;;;;;;;33.50;38.52;99568.68;109541;1250;60006;-77
2023/09/09 09:32:55;;;;;;;3.50;2.70;;;;;;;33.57;38.34;99561.59;109494;1250;75467;-76
2023/09/09 09:35:28;;;;;;;4.80;2.60;;;;;;;33.55;36.87;99562.48;109416;1251;67759;-74
2023/09/09 09:37:58;;;;;;;3.40;2.40;;;;;;;33.45;36.30;99568.10;109552;1250;72568;-73
2023/09/09 09:40:25;;;;;;;4.40;2.70;;;;;;;33.31;36.76;99571.59;109681;1250;59771;-74
2023/09/09 09:42:52;;;;;;;5.80;2.50;;;;;;;33.42;36.49;99569.98;109700;1254;59690;-73
2023/09/09 09:45:29;;;;;;;5.70;2.50;;;;;;;33.62;36.32;99569.75;109610;1251;75433;-71
2023/09/09 09:47:57;;;;;;;5.80;3.00;;;;;;;33.87;35.96;99566.97;109645;1250;68323;-72
2023/09/09 09:50:30;;;;;;;4.60;2.70;;;;;;;33.84;35.91;99566.17;109567;1250;72560;-74
2023/09/09 09:52:58;;;;;;;7.00;2.80;;;;;;;33.68;35.63;99564.84;109656;1250;59685;-69
2023/09/09 09:55:26;;;;;;;3.30;2.80;;;;;;;33.38;35.70;99571.54;109584;1252;61201;-73
2023/09/09 09:57:54;;;;;;;4.30;2.80;;;;;;;33.14;35.93;99569.48;109530;1250;75212;-73
2023/09/09 10:00:23;;;;;;;3.00;2.70;;;;;;;33.00;36.04;99568.37;109594;1251;66521;-71
2023/09/09 10:02:52;;;;;;;5.20;3.30;;;;;;;32.85;36.20;99573.72;109528;1250;71774;-73
2023/09/09 10:05:23;;;;;;;7.30;3.90;;;;;;;32.55;35.45;99575.73;109533;1251;59901;-77
2023/09/09 10:07:56;;;;;;;4.20;2.50;;;;;;;32.00;35.18;99578.99;109599;1250;59819;-72
2023/09/09 10:10:26;;;;;;;3.90;2.50;;;;;;;31.53;35.73;99576.67;109562;1250;75252;-77
2023/09/09 10:12:56;;;;;;;6.90;3.00;;;;;;;31.10;36.54;99585.91;109437;1251;68155;-73
2023/09/09 10:15:22;;;;;;;7.60;3.20;;;;;;;31.08;36.71;99583.65;109410;1251;73016;-74
2023/09/09 10:17:50;;;;;;;3.30;2.80;;;;;;;31.30;37.11;99580.55;109394;1253;60054;-75
2023/09/09 10:20:18;;;;;;;4.20;2.80;;;;;;;31.47;36.30;99581.73;109468;1251;60620;-75
2023/09/09 10:22:47;;;;;;;8.70;3.90;;;;;;;31.52;36.06;99584.98;109527;1251;75514;-76
2023/09/09 10:25:13;;;;;;;4.60;2.60;;;;;;;31.58;36.42;99584.80;109537;1250;67904;-73
2023/09/09 10:27:40;;;;;;;4.80;3.30;;;;;;;31.70;36.58;99580.73;109469;1250;72722;-76
2023/09/09 10:30:08;;;;;;;10.60;2.60;;;;;;;31.89;36.16;99580.09;109610;1255;60269;-74
2023/09/09 10:32:35;;;;;;;2.50;2.00;;;;;;;32.01;35.25;99581.06;109658;1251;59720;-75
2023/09/09 10:35:05;;;;;;;4.60;2.60;;;;;;;31.86;35.08;99581.72;109623;1251;73430;-74
2023/09/09 10:37:34;;;;;;;4.40;2.30;;;;;;;31.70;34.83;99587.90;109654;1251;67774;-74
2023/09/09 10:40:01;;;;;;;7.50;2.80;;;;;;;31.64;35.04;99582.88;109556;1251;71114;-75
2023/09/09 10:42:27;;;;;;;3.60;2.50;;;;;;;31.59;34.71;99582.86;109573;1250;59794;-77
2023/09/09 10:44:54;;;;;;;4.60;2.60;;;;;;;31.36;35.16;99581.21;109540;1251;59716;-72
2023/09/09 10:47:20;;;;;;;4.70;2.50;;;;;;;31.01;35.23;99584.52;109656;1251;59700;-74
2023/09/09 10:49:47;;;;;;;5.30;1.90;;;;;;;30.75;35.08;99595.35;109565;1251;68034;-72
2023/09/09 10:52:32;;;;;;;3.70;1.90;;;;;;;30.53;34.41;99598.27;109522;1251;60147;-71
2023/09/09 10:55:14;;;;;;;3.50;2.50;;;;;;;30.04;35.46;99594.01;109566;1251;59749;-70
2023/09/09 10:57:41;;;;;;;3.30;2.40;;;;;;;29.86;36.59;99592.71;109685;1250;60086;-72
2023/09/09 11:00:12;;;;;;;7.50;1.90;;;;;;;30.05;36.29;99594.05;109651;1251;75465;-72
2023/09/09 11:02:48;;;;;;;3.80;1.70;;;;;;;30.16;35.77;99599.65;109506;1251;67048;-69
2023/09/09 11:05:15;;;;;;;3.70;2.20;;;;;;;29.94;36.06;99596.12;109533;1251;72530;-71
2023/09/09 11:07:42;;;;;;;4.80;1.70;;;;;;;29.94;36.64;99595.89;109536;1250;60243;-70
2023/09/09 11:10:09;;;;;;;2.50;1.70;;;;;;;30.10;36.34;99598.04;109676;1251;60105;-72
2023/09/09 11:12:37;;;;;;;3.30;2.20;;;;;;;30.09;35.84;99600.96;109633;1251;74229;-69
2023/09/09 11:15:11;;;;;;;3.90;1.60;;;;;;;30.13;35.65;99606.39;109643;1251;67683;-71
2023/09/09 11:17:42;;;;;;;3.70;1.90;;;;;;;30.06;35.81;99598.26;109569;1251;71441;-72
2023/09/09 11:20:11;;;;;;;5.10;2.10;;;;;;;29.81;35.74;99596.92;109645;1251;60060;-66
2023/09/09 11:22:41;;;;;;;2.80;2.10;;;;;;;29.72;36.60;99595.26;109610;1250;60012;-67